Time;durP1;ratioP1;P1;durP2;ratioP2;P2;SDS_P1;SDS_P2;PMS_P1;PMS_P2;Temp;Humidity;BMP_temperature;BMP_pressure;BME280_temperature;BME280_humidity;BME280_pressure;Samples;Min_cycle;Max_cycle;Signal;HPM_P1;HPM_P2
2022/06/24 00:02:19;;;;;;;5.07;1.10;;;20.40;87.40;;;;;;5058176;28;20117;-73
2022/06/24 00:04:51;;;;;;;1.48;1.10;;;20.30;88.20;;;;;;5050455;28;20561;-73
2022/06/24 00:07:17;;;;;;;2.28;1.35;;;20.30;88.60;;;;;;5060103;28;20433;-73
2022/06/24 00:09:44;;;;;;;1.45;1.10;;;20.20;89.10;;;;;;5041007;28;20095;-73
2022/06/24 00:12:24;;;;;;;1.95;1.30;;;20.10;89.70;;;;;;5060809;28;20182;-73
2022/06/24 00:14:58;;;;;;;3.47;1.48;;;20.10;89.90;;;;;;5070541;28;20052;-73
2022/06/24 00:17:28;;;;;;;2.05;1.17;;;20.00;90.00;;;;;;5062530;28;20052;-73
2022/06/24 00:19:59;;;;;;;1.85;1.10;;;20.00;90.10;;;;;;5064155;28;20040;-73
2022/06/24 00:22:28;;;;;;;1.90;1.10;;;19.90;90.40;;;;;;5067480;28;20024;-73
2022/06/24 00:25:20;;;;;;;2.38;1.50;;;19.80;90.70;;;;;;5054026;28;20138;-73
2022/06/24 00:28:01;;;;;;;2.05;1.25;;;19.70;90.90;;;;;;5044519;28;20047;-73
2022/06/24 00:30:27;;;;;;;2.03;1.38;;;19.70;91.30;;;;;;5057754;28;20056;-73
2022/06/24 00:33:14;;;;;;;1.58;0.95;;;19.60;91.30;;;;;;5060528;28;20123;-73
2022/06/24 00:35:49;;;;;;;1.98;1.10;;;19.60;91.30;;;;;;5058118;28;20118;-73
2022/06/24 00:38:35;;;;;;;3.22;1.27;;;19.60;91.10;;;;;;5058040;28;20047;-73
2022/06/24 00:41:13;;;;;;;3.08;1.50;;;19.60;91.10;;;;;;5054595;28;20083;-73
2022/06/24 00:43:41;;;;;;;2.20;1.30;;;19.50;91.10;;;;;;5061930;28;20451;-73
2022/06/24 00:46:16;;;;;;;2.08;1.20;;;19.50;91.00;;;;;;5058190;28;20496;-73
2022/06/24 00:48:47;;;;;;;3.37;1.50;;;19.50;90.90;;;;;;5054949;28;20036;-73
2022/06/24 00:51:13;;;;;;;3.30;1.75;;;19.50;90.70;;;;;;5062797;28;20475;-73
2022/06/24 00:53:47;;;;;;;2.00;1.33;;;19.50;90.70;;;;;;5034968;28;20075;-73
2022/06/24 00:56:16;;;;;;;2.90;1.33;;;19.50;90.60;;;;;;5059884;28;20031;-73
2022/06/24 00:58:56;;;;;;;2.60;1.10;;;19.40;90.90;;;;;;5054491;28;20040;-73
2022/06/24 01:01:36;;;;;;;2.28;1.15;;;19.40;91.50;;;;;;5045642;28;20041;-73
2022/06/24 01:04:03;;;;;;;2.10;1.30;;;19.40;91.60;;;;;;5053974;28;20430;-73
2022/06/24 01:06:30;;;;;;;2.13;1.00;;;19.30;91.70;;;;;;5040333;28;20059;-73
2022/06/24 01:08:56;;;;;;;1.65;1.10;;;19.20;92.00;;;;;;5042944;28;20499;-73
2022/06/24 01:11:28;;;;;;;2.47;1.45;;;19.10;92.20;;;;;;5050660;28;20036;-73
2022/06/24 01:13:55;;;;;;;1.83;1.30;;;19.10;92.30;;;;;;5055855;28;20048;-73
2022/06/24 01:16:21;;;;;;;2.15;1.33;;;19.10;92.20;;;;;;5033331;28;20095;-73
2022/06/24 01:18:52;;;;;;;1.63;1.23;;;18.90;92.20;;;;;;5050167;28;20049;-73
2022/06/24 01:21:41;;;;;;;2.63;1.38;;;19.00;92.30;;;;;;5057490;28;20040;-73
2022/06/24 01:24:20;;;;;;;2.72;1.05;;;19.00;93.10;;;;;;5055289;28;20047;-73
2022/06/24 01:26:49;;;;;;;1.10;0.88;;;18.90;92.70;;;;;;5042299;28;20049;-73
2022/06/24 01:29:15;;;;;;;2.70;1.38;;;18.80;93.00;;;;;;5036722;28;20042;-73
2022/06/24 01:31:48;;;;;;;1.73;1.25;;;18.80;93.10;;;;;;5037898;28;20429;-73
2022/06/24 01:34:15;;;;;;;2.03;1.25;;;18.70;93.40;;;;;;5049879;28;20487;-73
2022/06/24 01:36:40;;;;;;;2.55;1.45;;;18.70;93.30;;;;;;5057116;28;20039;-73
2022/06/24 01:39:07;;;;;;;2.85;1.20;;;18.70;93.40;;;;;;5057356;28;20091;-73
2022/06/24 01:41:33;;;;;;;2.38;1.23;;;18.70;93.50;;;;;;5057456;28;20042;-73
2022/06/24 01:43:59;;;;;;;1.60;1.20;;;18.60;93.70;;;;;;5051126;28;20040;-73
2022/06/24 01:46:25;;;;;;;2.10;1.40;;;18.50;93.90;;;;;;5058827;28;20085;-73
2022/06/24 01:48:50;;;;;;;2.20;1.60;;;18.50;94.20;;;;;;5054561;28;20524;-73
2022/06/24 01:51:18;;;;;;;1.88;1.23;;;18.50;94.30;;;;;;5056425;28;20042;-73
2022/06/24 01:53:44;;;;;;;2.00;1.25;;;18.40;94.40;;;;;;5057659;28;20045;-73
2022/06/24 01:56:10;;;;;;;2.42;1.60;;;18.30;94.40;;;;;;5050951;28;20036;-73
2022/06/24 01:58:35;;;;;;;3.35;1.77;;;18.30;94.50;;;;;;5054150;28;20082;-73
2022/06/24 02:01:01;;;;;;;1.58;1.17;;;18.30;94.70;;;;;;5060894;28;20664;-73
2022/06/24 02:03:29;;;;;;;2.05;1.45;;;18.30;94.80;;;;;;5065475;28;20040;-73
2022/06/24 02:05:59;;;;;;;2.42;1.42;;;18.30;94.80;;;;;;5041273;28;20028;-73
2022/06/24 02:08:24;;;;;;;2.55;1.40;;;18.30;94.40;;;;;;5043746;28;20047;-73
2022/06/24 02:13:34;;;;;;;2.40;1.20;;;18.30;93.60;;;;;;5058163;28;20040;-73
2022/06/24 02:16:03;;;;;;;2.78;1.30;;;18.40;93.60;;;;;;5063845;28;20043;-73
2022/06/24 02:18:30;;;;;;;1.88;1.27;;;18.50;93.30;;;;;;5058906;28;20143;-73
2022/06/24 02:20:57;;;;;;;2.78;1.40;;;18.40;93.20;;;;;;5059541;28;20404;-72
2022/06/24 02:23:23;;;;;;;3.05;1.20;;;18.50;93.30;;;;;;5058424;28;20470;-73
2022/06/24 02:25:51;;;;;;;2.03;1.27;;;18.50;93.60;;;;;;5063913;28;20046;-73
2022/06/24 02:28:17;;;;;;;1.70;1.35;;;18.40;93.60;;;;;;5058776;28;20052;-73
2022/06/24 02:30:45;;;;;;;2.47;1.33;;;18.40;93.70;;;;;;5057102;28;20052;-73
2022/06/24 02:33:11;;;;;;;2.30;1.27;;;18.40;93.40;;;;;;5047494;28;20127;-73
2022/06/24 02:35:38;;;;;;;2.72;1.70;;;18.40;93.40;;;;;;5061738;28;20067;-73
2022/06/24 02:38:04;;;;;;;2.28;1.48;;;18.40;93.10;;;;;;5042445;28;20041;-73
2022/06/24 02:40:45;;;;;;;2.58;1.52;;;18.40;93.40;;;;;;5051287;28;20032;-73
2022/06/24 02:43:33;;;;;;;1.98;1.40;;;18.40;93.30;;;;;;5062515;28;20036;-73
2022/06/24 02:46:00;;;;;;;2.20;1.33;;;18.30;94.00;;;;;;5060076;28;20067;-73
2022/06/24 02:48:27;;;;;;;2.03;1.33;;;18.30;93.60;;;;;;5061071;28;20128;-73
2022/06/24 02:50:55;;;;;;;2.17;1.35;;;18.30;93.90;;;;;;5041879;28;20028;-73
2022/06/24 02:53:22;;;;;;;4.28;1.38;;;18.20;94.30;;;;;;5058762;28;20029;-73
2022/06/24 02:55:53;;;;;;;2.47;1.40;;;18.20;94.50;;;;;;5047945;28;20128;-73
2022/06/24 02:58:19;;;;;;;2.10;1.20;;;18.20;94.30;;;;;;5058916;28;20040;-73
2022/06/24 03:00:45;;;;;;;2.55;1.25;;;18.20;94.10;;;;;;5065787;28;20045;-72
2022/06/24 03:03:13;;;;;;;2.55;1.20;;;18.20;93.70;;;;;;5063261;28;20038;-73
2022/06/24 03:05:39;;;;;;;2.15;1.45;;;18.30;93.70;;;;;;5063343;28;20097;-73
2022/06/24 03:08:05;;;;;;;2.13;1.33;;;18.30;94.10;;;;;;5047381;28;20601;-73
2022/06/24 03:10:31;;;;;;;2.47;1.55;;;18.30;94.30;;;;;;5062158;28;20425;-73
2022/06/24 03:12:57;;;;;;;2.83;1.58;;;18.30;94.70;;;;;;5043467;28;20044;-73
2022/06/24 03:15:22;;;;;;;2.67;1.55;;;18.30;95.00;;;;;;5054460;28;20048;-73
2022/06/24 03:17:48;;;;;;;2.25;1.60;;;18.30;95.30;;;;;;5056056;28;20087;-73
2022/06/24 03:20:14;;;;;;;1.80;1.00;;;18.30;95.40;;;;;;5042631;28;20029;-73
2022/06/24 03:22:40;;;;;;;2.47;1.42;;;18.30;95.70;;;;;;5046061;28;20040;-73
2022/06/24 03:25:06;;;;;;;2.17;1.33;;;18.20;95.80;;;;;;5042293;28;20124;-73
2022/06/24 03:27:32;;;;;;;3.47;1.88;;;18.20;96.00;;;;;;5062765;28;20044;-73
2022/06/24 03:29:59;;;;;;;2.85;1.70;;;18.20;96.00;;;;;;5039729;28;20055;-73
2022/06/24 03:32:24;;;;;;;2.25;1.40;;;18.20;96.10;;;;;;5061634;28;20551;-73
2022/06/24 03:34:50;;;;;;;1.80;1.25;;;18.20;96.00;;;;;;5057147;28;20132;-73
2022/06/24 03:37:16;;;;;;;2.25;1.55;;;18.20;96.10;;;;;;5061020;28;20041;-73
2022/06/24 03:39:41;;;;;;;2.45;1.60;;;18.30;96.40;;;;;;5063070;28;20068;-73
2022/06/24 03:42:07;;;;;;;1.65;1.27;;;18.20;96.40;;;;;;5043936;28;20117;-73
2022/06/24 03:44:33;;;;;;;1.98;1.30;;;18.20;96.30;;;;;;5055571;28;20028;-73
2022/06/24 03:46:58;;;;;;;2.05;1.30;;;18.30;96.40;;;;;;5057900;28;20592;-73
2022/06/24 03:49:24;;;;;;;2.58;1.52;;;18.30;96.00;;;;;;5057912;28;20056;-73
2022/06/24 03:51:50;;;;;;;2.30;1.55;;;18.30;96.30;;;;;;5055709;28;20078;-73
2022/06/24 03:54:16;;;;;;;2.63;1.67;;;18.30;96.40;;;;;;5063183;28;20036;-73
2022/06/24 03:56:41;;;;;;;2.55;1.52;;;18.30;96.60;;;;;;5052689;28;20048;-73
2022/06/24 03:59:07;;;;;;;2.08;1.40;;;18.20;96.70;;;;;;5053400;28;20035;-73
2022/06/24 04:01:33;;;;;;;2.15;1.30;;;18.30;96.60;;;;;;5061923;28;20043;-73
2022/06/24 04:03:58;;;;;;;2.80;1.65;;;18.30;96.50;;;;;;5057053;28;20041;-73
2022/06/24 04:06:24;;;;;;;2.28;1.60;;;18.30;96.50;;;;;;5056036;28;20040;-73
2022/06/24 04:08:52;;;;;;;2.58;1.58;;;18.40;96.40;;;;;;5044385;28;20040;-73
2022/06/24 04:11:18;;;;;;;2.65;1.63;;;18.40;96.30;;;;;;5040065;28;20786;-73
2022/06/24 04:13:44;;;;;;;2.17;1.40;;;18.40;96.60;;;;;;5055984;28;20036;-73
2022/06/24 04:16:10;;;;;;;3.05;1.77;;;18.40;96.60;;;;;;5065892;28;20036;-73
2022/06/24 04:18:36;;;;;;;2.05;1.25;;;18.40;96.70;;;;;;5041456;28;20044;-73
2022/06/24 04:21:02;;;;;;;3.00;1.60;;;18.40;96.70;;;;;;5056756;28;20100;-73
2022/06/24 04:23:28;;;;;;;2.55;1.25;;;18.50;96.70;;;;;;5046532;28;20426;-73
2022/06/24 04:25:53;;;;;;;2.95;1.50;;;18.50;96.60;;;;;;5045653;28;20033;-73
2022/06/24 04:28:20;;;;;;;3.63;1.48;;;18.50;96.60;;;;;;5057001;28;20045;-73
2022/06/24 04:30:46;;;;;;;3.50;1.50;;;18.60;96.70;;;;;;5043863;28;20048;-73
2022/06/24 04:33:12;;;;;;;2.10;1.50;;;18.60;96.70;;;;;;5059927;28;20033;-73
2022/06/24 04:35:40;;;;;;;2.90;1.52;;;18.60;96.50;;;;;;5062401;28;20040;-73
2022/06/24 04:38:05;;;;;;;1.88;1.40;;;18.70;96.70;;;;;;5063124;28;20040;-73
2022/06/24 04:40:31;;;;;;;2.38;1.45;;;18.70;96.50;;;;;;5057417;28;20033;-73
2022/06/24 04:42:56;;;;;;;2.63;1.65;;;18.80;96.30;;;;;;5049290;28;20039;-73
2022/06/24 04:45:22;;;;;;;4.22;1.60;;;18.80;96.30;;;;;;5043578;28;20725;-73
2022/06/24 04:47:48;;;;;;;2.35;1.58;;;18.80;96.40;;;;;;5060200;28;20037;-73
2022/06/24 04:50:14;;;;;;;2.17;1.65;;;18.90;96.40;;;;;;5048034;28;20055;-73
2022/06/24 04:52:40;;;;;;;3.25;1.48;;;19.00;96.00;;;;;;5040306;28;20079;-73
2022/06/24 04:55:06;;;;;;;3.45;1.90;;;19.10;95.70;;;;;;5056965;28;20413;-73
2022/06/24 04:57:33;;;;;;;3.88;1.83;;;19.10;95.50;;;;;;5060326;28;20047;-73
2022/06/24 04:59:58;;;;;;;3.90;2.30;;;19.20;95.50;;;;;;5058947;28;20524;-73
2022/06/24 05:02:24;;;;;;;4.07;2.20;;;19.20;95.70;;;;;;5054609;28;20075;-73
2022/06/24 05:04:50;;;;;;;5.72;2.17;;;19.20;95.90;;;;;;5034183;28;20052;-73
2022/06/24 05:07:16;;;;;;;2.85;1.90;;;19.30;96.00;;;;;;5056798;28;20044;-73
2022/06/24 05:09:42;;;;;;;3.28;2.45;;;19.30;96.20;;;;;;5056426;28;20041;-73
2022/06/24 05:12:09;;;;;;;3.53;1.83;;;19.40;96.30;;;;;;5056586;28;20095;-73
2022/06/24 05:14:34;;;;;;;4.80;2.45;;;19.40;96.60;;;;;;5062072;28;20032;-73
2022/06/24 05:17:00;;;;;;;4.03;2.33;;;19.50;97.10;;;;;;5043367;28;20089;-73
2022/06/24 05:19:26;;;;;;;3.65;2.08;;;19.50;97.90;;;;;;5043551;28;20044;-73
2022/06/24 05:21:51;;;;;;;3.60;2.25;;;19.60;98.60;;;;;;5070938;28;20037;-73
2022/06/24 05:24:17;;;;;;;4.18;2.42;;;19.70;99.90;;;;;;5057955;28;20033;-73
2022/06/24 05:26:44;;;;;;;4.30;2.50;;;19.80;99.90;;;;;;5049371;28;20052;-73
2022/06/24 05:29:10;;;;;;;4.53;2.53;;;19.80;99.90;;;;;;5055500;28;20363;-73
2022/06/24 05:31:35;;;;;;;4.00;2.28;;;19.90;99.90;;;;;;5049047;28;20044;-73
2022/06/24 05:34:01;;;;;;;4.15;2.55;;;19.90;99.90;;;;;;5067417;28;20961;-73
2022/06/24 05:36:27;;;;;;;3.88;2.25;;;19.90;99.90;;;;;;5065381;28;20032;-73
2022/06/24 05:38:53;;;;;;;4.88;2.47;;;19.90;99.90;;;;;;5067816;28;20038;-73
2022/06/24 05:41:19;;;;;;;3.53;2.13;;;19.90;99.90;;;;;;5062957;28;20720;-73
2022/06/24 05:43:46;;;;;;;5.10;2.40;;;19.80;99.90;;;;;;5059139;28;20048;-73
2022/06/24 05:46:12;;;;;;;3.78;2.30;;;19.80;99.90;;;;;;5062834;28;20359;-73
2022/06/24 05:48:38;;;;;;;4.28;2.40;;;19.80;99.90;;;;;;5059790;28;20049;-73
2022/06/24 05:51:09;;;;;;;6.93;2.95;;;19.80;99.90;;;;;;5059625;28;20055;-73
2022/06/24 05:56:19;;;;;;;4.95;2.83;;;19.70;99.90;;;;;;5054328;28;20036;-72
2022/06/24 05:58:45;;;;;;;3.25;1.58;;;19.50;99.90;;;;;;5059095;28;20028;-72
2022/06/24 06:01:11;;;;;;;4.10;2.03;;;19.30;99.90;;;;;;5057986;28;20048;-72
2022/06/24 06:03:37;;;;;;;5.18;1.75;;;19.10;99.90;;;;;;5057706;28;20044;-72
2022/06/24 06:06:02;;;;;;;3.47;2.00;;;19.00;99.90;;;;;;5059809;28;20044;-72
2022/06/24 06:08:28;;;;;;;4.53;1.83;;;19.00;99.90;;;;;;5054607;28;20033;-72
2022/06/24 06:10:54;;;;;;;2.63;1.67;;;18.90;99.90;;;;;;5057278;28;20043;-72
2022/06/24 06:13:19;;;;;;;2.63;1.38;;;18.90;99.90;;;;;;5071840;28;20044;-72
2022/06/24 06:15:45;;;;;;;2.53;1.55;;;18.90;99.90;;;;;;5055915;28;20047;-71
2022/06/24 06:18:11;;;;;;;3.17;1.77;;;18.80;99.90;;;;;;5056328;28;20653;-72
2022/06/24 06:20:37;;;;;;;2.97;1.60;;;18.80;99.90;;;;;;5062116;28;20043;-72
2022/06/24 06:23:04;;;;;;;4.00;1.90;;;18.80;99.90;;;;;;5044533;28;20427;-72
2022/06/24 06:25:30;;;;;;;3.42;1.92;;;18.80;99.90;;;;;;5044668;28;20049;-72
2022/06/24 06:27:55;;;;;;;2.42;1.48;;;18.80;99.90;;;;;;5062544;28;20403;-76
2022/06/24 06:30:21;;;;;;;2.85;1.58;;;18.80;99.90;;;;;;5053116;28;20402;-72
2022/06/24 06:32:46;;;;;;;2.30;1.27;;;18.90;99.90;;;;;;5046187;28;20032;-72
2022/06/24 06:35:12;;;;;;;3.80;1.58;;;19.00;99.90;;;;;;5057693;28;20579;-72
2022/06/24 06:37:38;;;;;;;3.35;1.70;;;19.00;99.90;;;;;;5051704;28;20783;-73
2022/06/24 06:40:04;;;;;;;4.25;2.10;;;19.00;99.90;;;;;;5037997;28;20513;-72
2022/06/24 06:42:29;;;;;;;3.53;2.22;;;19.10;99.90;;;;;;5054547;28;20024;-73
2022/06/24 06:44:55;;;;;;;3.33;1.98;;;19.10;99.90;;;;;;5059857;28;20032;-73
2022/06/24 06:47:21;;;;;;;2.88;1.88;;;19.10;99.90;;;;;;5057413;28;20092;-73
2022/06/24 06:49:46;;;;;;;4.22;1.67;;;19.10;99.90;;;;;;5053912;28;20056;-73
2022/06/24 06:52:12;;;;;;;3.58;1.88;;;19.10;99.90;;;;;;5043862;28;20781;-72
2022/06/24 06:54:38;;;;;;;5.65;1.77;;;19.10;99.90;;;;;;5054598;28;20052;-72
2022/06/24 06:57:04;;;;;;;4.15;1.83;;;19.10;99.90;;;;;;5053984;28;20387;-73
2022/06/24 06:59:29;;;;;;;3.75;2.05;;;19.10;99.90;;;;;;5058673;28;20032;-73
2022/06/24 07:01:55;;;;;;;2.28;1.45;;;19.10;99.90;;;;;;5058388;28;20162;-73
2022/06/24 07:04:21;;;;;;;3.33;1.98;;;19.10;99.90;;;;;;5052754;28;20127;-72
2022/06/24 07:06:47;;;;;;;2.80;1.50;;;19.10;99.90;;;;;;5045401;28;20487;-73
2022/06/24 07:09:13;;;;;;;2.38;1.48;;;19.10;99.90;;;;;;5034183;28;20037;-76
2022/06/24 07:11:38;;;;;;;3.80;2.35;;;19.20;99.90;;;;;;5052705;28;20626;-73
2022/06/24 07:14:04;;;;;;;6.70;2.30;;;19.10;99.90;;;;;;5049284;28;20329;-72
2022/06/24 07:16:30;;;;;;;4.28;2.20;;;19.10;99.90;;;;;;5039851;28;20495;-72
2022/06/24 07:18:55;;;;;;;2.78;1.73;;;19.20;99.90;;;;;;5054822;28;20071;-72
2022/06/24 07:21:21;;;;;;;3.03;1.67;;;19.20;99.90;;;;;;5059843;28;20462;-73
2022/06/24 07:23:46;;;;;;;3.17;1.70;;;19.20;99.90;;;;;;5049893;28;20132;-72
2022/06/24 07:26:12;;;;;;;3.85;1.70;;;19.20;99.90;;;;;;5056713;28;20456;-72
2022/06/24 07:28:38;;;;;;;4.15;2.10;;;19.20;99.90;;;;;;5060773;28;20271;-72
2022/06/24 07:31:17;;;;;;;2.45;1.50;;;19.10;99.90;;;;;;5049611;28;20059;-72
2022/06/24 07:33:44;;;;;;;2.60;1.30;;;19.10;99.90;;;;;;5056135;28;20042;-73
2022/06/24 07:36:09;;;;;;;2.58;1.38;;;19.10;99.90;;;;;;5056781;28;20036;-73
2022/06/24 07:38:35;;;;;;;3.15;1.75;;;19.10;99.90;;;;;;5050037;28;20055;-72
2022/06/24 07:41:01;;;;;;;3.10;1.35;;;19.10;99.90;;;;;;5052157;28;20037;-72
2022/06/24 07:43:27;;;;;;;2.55;1.40;;;19.00;99.90;;;;;;5053042;28;20370;-72
2022/06/24 07:45:53;;;;;;;2.63;1.35;;;19.10;99.90;;;;;;5054450;28;20197;-72
2022/06/24 07:48:20;;;;;;;1.88;1.00;;;19.10;99.90;;;;;;5055451;28;20040;-72
2022/06/24 07:50:45;;;;;;;3.05;1.42;;;19.10;99.90;;;;;;5058884;28;20037;-71
2022/06/24 07:53:11;;;;;;;2.92;1.80;;;19.10;99.90;;;;;;5035485;28;20044;-72
2022/06/24 07:58:22;;;;;;;2.45;1.40;;;19.10;99.90;;;;;;5055851;28;20123;-72
2022/06/24 08:00:48;;;;;;;4.60;1.50;;;19.10;99.90;;;;;;5062120;28;20040;-71
2022/06/24 08:03:14;;;;;;;2.45;1.40;;;19.10;99.90;;;;;;5043226;28;20119;-71
2022/06/24 08:05:40;;;;;;;2.53;1.60;;;19.10;99.90;;;;;;5069807;28;20184;-72
2022/06/24 08:08:05;;;;;;;4.18;1.52;;;19.10;99.90;;;;;;5058015;28;20218;-72
2022/06/24 08:10:32;;;;;;;2.63;1.67;;;19.10;99.90;;;;;;5054570;28;20047;-72
2022/06/24 08:12:58;;;;;;;1.90;1.17;;;19.10;99.90;;;;;;5052968;28;20036;-72
2022/06/24 08:15:23;;;;;;;2.25;1.27;;;19.10;99.90;;;;;;5051918;28;20371;-72
2022/06/24 08:17:49;;;;;;;2.17;1.38;;;19.10;99.90;;;;;;5048169;28;20044;-71
2022/06/24 08:20:15;;;;;;;3.50;1.80;;;19.10;99.90;;;;;;5033282;28;21728;-72
2022/06/24 08:22:41;;;;;;;2.78;1.50;;;19.10;99.90;;;;;;5054275;28;20044;-72
2022/06/24 08:25:07;;;;;;;4.07;1.50;;;19.10;99.90;;;;;;5036474;28;20061;-72
2022/06/24 08:27:32;;;;;;;3.55;1.75;;;19.10;99.90;;;;;;5032874;28;20128;-72
2022/06/24 08:29:58;;;;;;;2.72;1.75;;;19.20;99.90;;;;;;5046672;28;20041;-72
2022/06/24 08:32:24;;;;;;;2.83;1.55;;;19.20;99.90;;;;;;5049153;28;20510;-72
2022/06/24 08:34:50;;;;;;;1.80;1.30;;;19.20;99.90;;;;;;5047991;28;20384;-72
2022/06/24 08:37:15;;;;;;;2.50;1.52;;;19.30;99.90;;;;;;5058445;28;20056;-73
2022/06/24 08:39:41;;;;;;;3.08;1.65;;;19.30;99.90;;;;;;5049543;28;20060;-72
2022/06/24 08:42:11;;;;;;;3.25;1.90;;;19.30;99.90;;;;;;5051150;28;20436;-71
2022/06/24 08:44:37;;;;;;;2.80;1.40;;;19.30;99.90;;;;;;5054894;28;20674;-72
2022/06/24 08:47:03;;;;;;;3.33;1.95;;;19.30;99.90;;;;;;5042431;28;20037;-66
2022/06/24 08:49:31;;;;;;;3.83;2.40;;;19.30;99.90;;;;;;5055478;28;20132;-72
2022/06/24 08:51:59;;;;;;;2.58;1.60;;;19.20;99.90;;;;;;5050721;28;20071;-73
2022/06/24 08:54:30;;;;;;;3.05;1.73;;;19.20;99.90;;;;;;5032321;28;20045;-72
2022/06/24 08:56:55;;;;;;;3.72;1.98;;;19.20;99.90;;;;;;5037401;28;20774;-73
2022/06/24 08:59:21;;;;;;;3.47;2.10;;;19.20;99.90;;;;;;5052251;28;20033;-73
2022/06/24 09:01:47;;;;;;;3.40;2.08;;;19.30;99.90;;;;;;5049381;28;20122;-72
2022/06/24 09:04:13;;;;;;;3.80;2.10;;;19.30;99.90;;;;;;5057225;28;20056;-73
2022/06/24 09:06:40;;;;;;;2.55;1.70;;;19.30;99.90;;;;;;5049354;28;20048;-72
2022/06/24 09:09:06;;;;;;;2.67;1.75;;;19.30;99.90;;;;;;5032920;28;20043;-76
2022/06/24 09:11:37;;;;;;;3.47;2.05;;;19.30;99.90;;;;;;5047768;28;20759;-72
2022/06/24 09:14:03;;;;;;;2.22;1.55;;;19.30;99.90;;;;;;5040598;28;20044;-73
2022/06/24 09:16:29;;;;;;;3.83;2.03;;;19.30;99.90;;;;;;5055074;28;20043;-72
2022/06/24 09:18:58;;;;;;;3.42;2.33;;;19.30;99.90;;;;;;5057045;28;20048;-70
2022/06/24 09:21:28;;;;;;;3.92;2.20;;;19.30;99.90;;;;;;5050924;28;20033;-68
2022/06/24 09:23:59;;;;;;;3.55;1.73;;;19.30;99.90;;;;;;5059489;28;20063;-65
2022/06/24 09:26:32;;;;;;;3.70;2.10;;;19.30;99.90;;;;;;5051904;28;20047;-65
2022/06/24 09:28:59;;;;;;;2.70;1.73;;;19.30;99.90;;;;;;5049319;28;20045;-66
2022/06/24 09:31:27;;;;;;;4.65;1.80;;;19.30;99.90;;;;;;5052306;28;20679;-70
2022/06/24 09:33:53;;;;;;;4.65;2.22;;;19.30;99.90;;;;;;5031601;28;20366;-68
2022/06/24 09:36:24;;;;;;;2.67;1.50;;;19.30;99.90;;;;;;5062470;28;20490;-71
2022/06/24 09:38:59;;;;;;;4.10;2.20;;;19.30;99.90;;;;;;5049273;28;20047;-69
2022/06/24 09:41:26;;;;;;;4.85;2.28;;;19.30;99.90;;;;;;5058783;28;20045;-70
2022/06/24 09:43:52;;;;;;;3.10;1.67;;;19.40;99.90;;;;;;5057217;28;20119;-70
2022/06/24 09:46:20;;;;;;;3.13;1.80;;;19.30;99.90;;;;;;5066315;28;20033;-70
2022/06/24 09:48:45;;;;;;;3.08;1.67;;;19.30;99.90;;;;;;5035902;28;20118;-70
2022/06/24 09:51:11;;;;;;;2.53;1.65;;;19.30;99.90;;;;;;5056250;28;20127;-70
2022/06/24 09:53:41;;;;;;;3.22;1.75;;;19.30;99.90;;;;;;5037728;28;20048;-70
2022/06/24 09:56:09;;;;;;;5.03;1.58;;;19.20;99.90;;;;;;5049485;28;20036;-69
2022/06/24 09:58:35;;;;;;;3.17;1.42;;;19.10;99.90;;;;;;5053027;28;20037;-67
2022/06/24 10:01:01;;;;;;;1.75;1.10;;;19.00;99.90;;;;;;5051939;28;20114;-68
2022/06/24 10:03:27;;;;;;;3.83;1.90;;;18.60;99.90;;;;;;5050016;28;20358;-67
2022/06/24 10:05:59;;;;;;;2.28;1.40;;;18.40;99.90;;;;;;5056286;28;20037;-67
2022/06/24 10:08:26;;;;;;;2.97;1.45;;;18.40;99.90;;;;;;5042676;28;20584;-67
2022/06/24 10:10:53;;;;;;;1.55;0.98;;;18.30;99.90;;;;;;5054282;28;20494;-67
2022/06/24 10:13:31;;;;;;;3.22;1.15;;;18.40;99.90;;;;;;5047351;28;20086;-68
2022/06/24 10:16:06;;;;;;;1.55;1.13;;;18.30;99.90;;;;;;5034974;28;20047;-68
2022/06/24 10:18:41;;;;;;;2.42;1.30;;;18.30;99.90;;;;;;5056703;28;20073;-67
2022/06/24 10:21:09;;;;;;;2.33;1.00;;;18.30;99.90;;;;;;5061936;28;20040;-67
2022/06/24 10:23:39;;;;;;;2.15;1.13;;;18.30;99.90;;;;;;5060191;28;20309;-67
2022/06/24 10:26:25;;;;;;;1.55;1.08;;;18.30;99.90;;;;;;5053578;28;20436;-67
2022/06/24 10:29:00;;;;;;;1.80;0.95;;;18.30;99.90;;;;;;5055698;28;20447;-66
2022/06/24 10:31:52;;;;;;;1.75;1.05;;;18.20;99.90;;;;;;5058977;28;20049;-67
2022/06/24 10:34:27;;;;;;;1.42;0.82;;;18.20;99.90;;;;;;5057521;28;20040;-67
2022/06/24 10:36:57;;;;;;;1.73;0.88;;;18.10;99.90;;;;;;5042672;28;20552;-66
2022/06/24 10:39:25;;;;;;;1.02;0.60;;;18.00;99.90;;;;;;5055300;28;20119;-67
2022/06/24 10:42:05;;;;;;;1.25;0.73;;;17.80;99.90;;;;;;5049326;28;20033;-66
2022/06/24 10:44:36;;;;;;;1.30;0.65;;;17.80;99.90;;;;;;5059124;28;20067;-67
2022/06/24 10:47:04;;;;;;;1.42;0.70;;;17.70;99.90;;;;;;5036706;28;20048;-67
2022/06/24 10:49:52;;;;;;;1.65;0.90;;;17.70;99.90;;;;;;5057643;28;20900;-72
2022/06/24 10:52:33;;;;;;;2.00;0.95;;;17.70;99.90;;;;;;5059662;28;20063;-74
2022/06/24 10:57:43;;;;;;;2.10;0.90;;;17.70;99.90;;;;;;5050292;28;20040;-74
2022/06/24 11:00:22;;;;;;;1.77;0.90;;;17.50;99.90;;;;;;5058869;28;20447;-74
2022/06/24 11:02:58;;;;;;;1.52;0.75;;;17.50;99.90;;;;;;5072001;28;20064;-74
2022/06/24 11:05:32;;;;;;;1.35;0.80;;;17.50;99.90;;;;;;5066976;28;20037;-75
2022/06/24 11:07:58;;;;;;;1.27;0.75;;;17.60;99.90;;;;;;5065610;28;20039;-74
2022/06/24 11:10:26;;;;;;;1.33;0.82;;;17.60;99.90;;;;;;5058702;28;20052;-74
2022/06/24 11:12:54;;;;;;;2.22;1.05;;;17.60;99.90;;;;;;5062144;28;20041;-74
2022/06/24 11:15:46;;;;;;;1.50;0.90;;;17.60;99.90;;;;;;5046747;28;20036;-74
2022/06/24 11:18:16;;;;;;;1.58;0.73;;;17.60;99.90;;;;;;5036736;28;20135;-74
2022/06/24 11:20:47;;;;;;;2.15;0.93;;;17.70;99.90;;;;;;5055046;28;20040;-74
2022/06/24 11:23:18;;;;;;;1.55;0.93;;;17.70;99.90;;;;;;5051812;28;20033;-74
2022/06/24 11:25:58;;;;;;;1.33;0.93;;;17.60;99.90;;;;;;5056859;28;20048;-74
2022/06/24 11:28:32;;;;;;;2.47;1.15;;;17.70;99.90;;;;;;5057956;28;20062;-74
2022/06/24 11:31:27;;;;;;;1.85;1.10;;;17.70;99.90;;;;;;5057188;28;20653;-74
2022/06/24 11:34:03;;;;;;;0.98;0.70;;;17.80;99.90;;;;;;5059107;28;20044;-74
2022/06/24 11:36:31;;;;;;;2.03;1.10;;;17.70;99.90;;;;;;5047316;28;20128;-74
2022/06/24 11:38:58;;;;;;;3.25;1.05;;;17.80;99.90;;;;;;5063068;28;20035;-74
2022/06/24 11:41:28;;;;;;;2.45;1.23;;;17.80;99.90;;;;;;5057830;28;20148;-74
2022/06/24 11:43:54;;;;;;;2.25;1.23;;;17.80;99.90;;;;;;5053963;28;20552;-74
2022/06/24 11:46:20;;;;;;;1.65;0.68;;;17.90;99.90;;;;;;5063537;28;20033;-74
2022/06/24 11:48:46;;;;;;;1.70;1.05;;;18.00;99.90;;;;;;5051736;28;20040;-75
2022/06/24 11:51:22;;;;;;;1.38;1.00;;;18.00;99.90;;;;;;5038793;28;20090;-75
2022/06/24 11:53:59;;;;;;;5.72;1.17;;;18.10;99.90;;;;;;5038478;28;20132;-74
2022/06/24 11:56:29;;;;;;;1.70;1.10;;;18.10;99.90;;;;;;5066112;28;20152;-75
2022/06/24 11:58:56;;;;;;;1.75;0.95;;;18.20;99.90;;;;;;5064389;28;20431;-74
2022/06/24 12:01:27;;;;;;;2.85;0.90;;;18.20;99.90;;;;;;5054420;28;20032;-74
2022/06/24 12:03:55;;;;;;;2.63;0.98;;;18.20;99.90;;;;;;5038434;28;20083;-74
2022/06/24 12:06:22;;;;;;;1.50;0.95;;;18.30;99.90;;;;;;5052423;28;20028;-74
2022/06/24 12:08:48;;;;;;;1.38;0.90;;;18.40;99.90;;;;;;5046181;28;20036;-74
2022/06/24 12:11:18;;;;;;;2.10;1.00;;;18.30;99.90;;;;;;5056244;28;20104;-75
2022/06/24 12:13:58;;;;;;;2.63;1.10;;;18.40;99.90;;;;;;5059407;28;20037;-74
2022/06/24 12:16:28;;;;;;;1.30;0.95;;;18.50;99.90;;;;;;5057177;28;20049;-74
2022/06/24 12:18:54;;;;;;;2.13;1.23;;;18.60;99.90;;;;;;5065993;28;20509;-74
2022/06/24 12:21:26;;;;;;;1.50;0.90;;;18.70;99.90;;;;;;5048858;28;20090;-74
2022/06/24 12:23:52;;;;;;;2.00;1.38;;;18.90;99.90;;;;;;5049299;28;20090;-74
2022/06/24 12:26:20;;;;;;;3.10;1.38;;;19.00;99.90;;;;;;5047899;28;20036;-74
2022/06/24 12:29:02;;;;;;;2.72;1.50;;;19.00;99.90;;;;;;5065225;28;20119;-74
2022/06/24 12:31:29;;;;;;;4.18;1.55;;;19.10;99.90;;;;;;5043593;28;20100;-75
2022/06/24 12:33:55;;;;;;;3.42;2.15;;;19.10;99.90;;;;;;5043694;28;20039;-74
2022/06/24 12:36:41;;;;;;;3.28;1.83;;;19.10;99.90;;;;;;5059449;28;20066;-74
2022/06/24 12:39:08;;;;;;;3.15;2.03;;;19.00;99.90;;;;;;5060923;28;20481;-74
2022/06/24 12:41:46;;;;;;;3.58;1.85;;;19.00;99.90;;;;;;5052158;28;20044;-74
2022/06/24 12:44:13;;;;;;;4.43;2.38;;;19.00;99.90;;;;;;5058912;28;20038;-74
2022/06/24 12:50:34;;;;;;;4.57;2.67;;;19.00;99.90;;;;;;5057108;28;20047;-74
2022/06/24 12:52:34;;;;;;;4.57;2.40;;;19.10;99.90;;;;;;5053424;28;20056;-74
2022/06/24 12:55:00;;;;;;;5.78;2.60;;;19.10;99.90;;;;;;5063850;28;20509;-74
2022/06/24 12:57:26;;;;;;;5.10;2.90;;;19.10;99.90;;;;;;5046737;28;20043;-74
2022/06/24 12:59:51;;;;;;;4.47;2.90;;;19.20;99.90;;;;;;5054496;28;20041;-74
2022/06/24 13:02:17;;;;;;;6.00;3.08;;;19.40;99.90;;;;;;5055813;28;20040;-74
2022/06/24 13:04:43;;;;;;;5.05;2.70;;;19.40;99.90;;;;;;5037508;28;20044;-74
2022/06/24 13:07:08;;;;;;;3.83;2.67;;;19.60;99.90;;;;;;5049627;28;20071;-75
2022/06/24 13:09:34;;;;;;;6.10;3.25;;;19.70;99.90;;;;;;5047506;28;20045;-75